createdAt,value
2023-02-15T00:00:16.228Z,53.67
2023-02-15T00:02:43.881Z,54.20
2023-02-15T00:05:11.464Z,70.43
2023-02-15T00:07:39.021Z,57.33
2023-02-15T00:10:07.873Z,57.17
2023-02-15T00:12:36.466Z,50.80
2023-02-15T00:15:04.370Z,52.83
2023-02-15T00:17:31.955Z,49.77
2023-02-15T00:19:59.532Z,53.83
2023-02-15T00:22:27.304Z,53.70
2023-02-15T00:24:57.298Z,50.80
2023-02-15T00:27:24.937Z,52.47
2023-02-15T00:29:52.518Z,50.40
2023-02-15T00:32:20.166Z,48.03
2023-02-15T00:34:47.740Z,49.13
2023-02-15T00:37:15.367Z,49.97
2023-02-15T00:39:43.259Z,46.20
2023-02-15T00:42:10.846Z,51.07
2023-02-15T00:44:38.388Z,51.03
2023-02-15T00:47:06.018Z,53.00
2023-02-15T00:49:33.601Z,50.00
2023-02-15T00:52:01.203Z,49.10
2023-02-15T00:54:28.790Z,49.27
2023-02-15T00:56:56.422Z,52.50
2023-02-15T00:59:24.082Z,51.57
2023-02-15T01:01:51.703Z,51.03
2023-02-15T01:04:19.354Z,51.37
2023-02-15T01:06:52.856Z,47.63
2023-02-15T01:09:20.445Z,53.00
2023-02-15T01:11:48.084Z,51.47
2023-02-15T01:14:15.738Z,54.80
2023-02-15T01:16:43.348Z,54.77
2023-02-15T01:19:11.949Z,56.93
2023-02-15T01:21:42.732Z,57.77
2023-02-15T01:24:20.207Z,61.63
2023-02-15T01:26:50.605Z,56.87
2023-02-15T01:29:18.175Z,55.13
2023-02-15T01:31:45.957Z,54.07
2023-02-15T01:34:13.646Z,57.97
2023-02-15T01:36:41.303Z,53.97
2023-02-15T01:39:08.983Z,56.07
2023-02-15T01:41:36.708Z,52.00
2023-02-15T01:44:24.488Z,54.37
2023-02-15T01:46:53.972Z,49.07
2023-02-15T01:49:27.565Z,50.67
2023-02-15T01:51:55.344Z,56.90
2023-02-15T01:54:28.570Z,58.53
2023-02-15T01:57:04.392Z,55.37
2023-02-15T01:59:34.083Z,56.53
2023-02-15T02:02:02.847Z,59.20
2023-02-15T02:04:39.750Z,51.93
2023-02-15T02:07:13.502Z,51.83
2023-02-15T02:09:41.151Z,49.97
2023-02-15T02:12:10.149Z,53.33
2023-02-15T02:14:42.343Z,52.93
2023-02-15T02:17:26.143Z,53.33
2023-02-15T02:20:15.176Z,51.80
2023-02-15T02:23:09.014Z,56.60
2023-02-15T02:26:08.303Z,50.53
2023-02-15T02:28:38.608Z,57.53
2023-02-15T02:31:36.901Z,54.73
2023-02-15T02:34:25.308Z,53.47
2023-02-15T02:37:28.768Z,49.47
2023-02-15T02:40:02.409Z,47.40
2023-02-15T02:42:41.100Z,49.13
2023-02-15T02:45:10.250Z,51.20
2023-02-15T02:47:46.704Z,49.67
2023-02-15T02:50:18.794Z,48.00
2023-02-15T02:52:51.982Z,46.87
2023-02-15T02:55:38.489Z,46.43
2023-02-15T02:58:24.630Z,42.13
2023-02-15T03:01:06.819Z,45.73
2023-02-15T03:03:44.792Z,44.50
2023-02-15T03:06:18.824Z,46.13
2023-02-15T03:08:50.269Z,47.50
2023-02-15T03:11:18.360Z,50.10
2023-02-15T03:13:49.183Z,46.10
2023-02-15T03:16:28.502Z,48.67
2023-02-15T03:19:01.549Z,49.27
2023-02-15T03:21:34.203Z,43.37
2023-02-15T03:24:11.625Z,49.73
2023-02-15T03:26:43.231Z,48.67
2023-02-15T03:29:12.290Z,46.37
2023-02-15T03:31:44.362Z,48.40
2023-02-15T03:34:15.925Z,46.07
2023-02-15T03:37:08.138Z,47.10
2023-02-15T03:39:54.075Z,46.90
2023-02-15T03:42:33.133Z,48.87
2023-02-15T03:45:14.324Z,47.97
2023-02-15T03:47:48.905Z,48.53
2023-02-15T03:50:40.118Z,45.30
2023-02-15T03:53:16.692Z,46.30
2023-02-15T03:55:48.601Z,42.07
2023-02-15T03:58:34.831Z,46.53
2023-02-15T04:01:37.240Z,44.60
2023-02-15T04:04:12.980Z,44.77
2023-02-15T04:06:40.641Z,45.37
2023-02-15T04:09:26.988Z,46.23
2023-02-15T04:11:54.590Z,44.00
2023-02-15T04:14:41.141Z,40.50
2023-02-15T04:17:09.953Z,47.73
2023-02-15T04:19:56.271Z,43.33
2023-02-15T04:22:42.317Z,44.70
2023-02-15T04:25:15.948Z,49.63
2023-02-15T04:27:45.742Z,40.07
2023-02-15T04:30:14.877Z,42.53
2023-02-15T04:32:42.897Z,46.00
2023-02-15T04:35:12.275Z,41.37
2023-02-15T04:37:41.040Z,42.83
2023-02-15T04:40:11.129Z,39.63
2023-02-15T04:42:38.772Z,41.63
2023-02-15T04:45:07.507Z,43.37
2023-02-15T04:47:35.495Z,41.57
2023-02-15T04:50:03.216Z,38.77
2023-02-15T04:52:30.825Z,40.30
2023-02-15T04:54:58.497Z,39.93
2023-02-15T04:57:26.098Z,37.37
2023-02-15T04:59:53.739Z,38.57
2023-02-15T05:02:21.406Z,37.00
2023-02-15T05:04:49.034Z,39.30
2023-02-15T05:07:16.695Z,40.23
2023-02-15T05:09:44.328Z,39.50
2023-02-15T05:12:12.454Z,42.10
2023-02-15T05:14:40.021Z,40.23
2023-02-15T05:17:07.655Z,39.53
2023-02-15T05:19:35.266Z,40.43
2023-02-15T05:22:05.478Z,37.70
2023-02-15T05:24:51.935Z,39.40
2023-02-15T05:27:38.464Z,37.87
2023-02-15T05:30:06.887Z,38.90
2023-02-15T05:32:34.657Z,38.50
2023-02-15T05:35:06.509Z,42.87
2023-02-15T05:37:34.407Z,41.43
2023-02-15T05:40:05.101Z,39.63
2023-02-15T05:42:32.696Z,39.43
2023-02-15T05:45:00.275Z,40.03
2023-02-15T05:47:30.160Z,39.87
2023-02-15T05:49:57.794Z,39.73
2023-02-15T05:52:25.899Z,40.60
2023-02-15T05:54:53.551Z,43.90
2023-02-15T05:57:23.813Z,39.03
2023-02-15T05:59:51.355Z,43.93
2023-02-15T06:02:19.227Z,38.63
2023-02-15T06:04:48.466Z,39.33
2023-02-15T06:07:16.128Z,37.90
2023-02-15T06:09:43.752Z,38.00
2023-02-15T06:12:11.385Z,37.20
2023-02-15T06:14:38.946Z,42.43
2023-02-15T06:17:06.594Z,40.13
2023-02-15T06:19:39.103Z,35.33
2023-02-15T06:22:07.337Z,36.10
2023-02-15T06:24:35.016Z,37.53
2023-02-15T06:27:02.786Z,34.80
2023-02-15T06:29:30.367Z,37.10
2023-02-15T06:31:58.038Z,36.43
2023-02-15T06:34:25.720Z,38.97
2023-02-15T06:36:53.331Z,35.70
2023-02-15T06:39:20.934Z,40.53
2023-02-15T06:41:48.494Z,36.03
2023-02-15T06:44:16.152Z,36.30
2023-02-15T06:46:43.859Z,36.63
2023-02-15T06:49:12.709Z,36.10
2023-02-15T06:51:40.329Z,36.27
2023-02-15T06:54:07.949Z,34.03
2023-02-15T06:56:39.632Z,36.60
2023-02-15T06:59:07.284Z,36.13
2023-02-15T07:01:34.925Z,35.90
2023-02-15T07:04:02.636Z,38.53
2023-02-15T07:06:35.498Z,37.17
2023-02-15T07:13:19.274Z,38.27
2023-02-15T07:15:48.360Z,39.70
2023-02-15T07:18:16.124Z,38.03
2023-02-15T07:20:43.758Z,40.67
2023-02-15T07:23:11.433Z,40.57
2023-02-15T07:25:39.067Z,41.83
2023-02-15T07:28:07.036Z,42.40
2023-02-15T07:30:37.377Z,41.73
2023-02-15T07:33:23.728Z,39.93
2023-02-15T07:35:59.032Z,41.03
2023-02-15T07:38:28.643Z,41.07
2023-02-15T07:41:03.921Z,39.90
2023-02-15T07:43:33.358Z,42.23
2023-02-15T07:46:06.590Z,42.03
2023-02-15T07:48:35.176Z,36.83
2023-02-15T07:51:04.809Z,37.40
2023-02-15T07:53:33.258Z,35.10
2023-02-15T07:56:07.397Z,39.60
2023-02-15T07:58:53.839Z,39.77
2023-02-15T08:01:27.619Z,36.40
2023-02-15T08:03:55.801Z,39.27
2023-02-15T08:06:25.570Z,36.67
2023-02-15T08:08:53.961Z,38.23
2023-02-15T08:11:27.198Z,37.20
2023-02-15T08:14:09.519Z,37.40
2023-02-15T08:16:42.855Z,41.93
2023-02-15T08:19:29.615Z,36.53
2023-02-15T08:22:00.025Z,36.67
2023-02-15T08:24:35.832Z,39.60
2023-02-15T08:27:06.144Z,35.30
2023-02-15T08:29:35.541Z,36.07
2023-02-15T08:32:11.003Z,37.43
2023-02-15T08:34:45.685Z,34.53
2023-02-15T08:37:13.246Z,36.00
2023-02-15T08:39:40.900Z,32.90
2023-02-15T08:42:08.498Z,33.13
2023-02-15T08:44:38.844Z,32.67
2023-02-15T08:47:06.458Z,33.97
2023-02-15T08:49:36.650Z,34.00
2023-02-15T08:52:04.391Z,33.67
2023-02-15T08:54:32.049Z,29.60
2023-02-15T08:57:02.462Z,26.70
2023-02-15T08:59:30.026Z,27.80
2023-02-15T09:02:01.906Z,28.40
2023-02-15T09:04:29.661Z,30.20
2023-02-15T09:06:57.253Z,26.90
2023-02-15T09:09:25.088Z,28.27
2023-02-15T09:11:57.666Z,29.30
2023-02-15T09:14:27.953Z,28.47
2023-02-15T09:16:55.784Z,30.13
2023-02-15T09:19:24.367Z,27.57
2023-02-15T09:21:52.524Z,31.90
2023-02-15T09:24:22.961Z,30.10
2023-02-15T09:26:50.836Z,30.10
2023-02-15T09:29:19.583Z,30.57
2023-02-15T09:31:50.897Z,30.07
2023-02-15T09:34:23.270Z,32.33
2023-02-15T09:36:52.069Z,32.50
2023-02-15T09:39:24.496Z,30.43
2023-02-15T09:42:27.289Z,28.50
2023-02-15T09:45:24.677Z,31.93
2023-02-15T09:48:14.240Z,32.33
2023-02-15T09:51:00.980Z,30.30
2023-02-15T09:53:40.288Z,31.67
2023-02-15T09:56:25.536Z,28.53
2023-02-15T09:59:03.096Z,30.03
2023-02-15T10:01:49.857Z,27.10
2023-02-15T10:04:48.531Z,26.13
2023-02-15T10:07:56.805Z,27.23
2023-02-15T10:10:35.981Z,30.37
2023-02-15T10:13:18.388Z,30.23
2023-02-15T10:15:45.927Z,28.97
2023-02-15T10:18:34.081Z,27.37
2023-02-15T10:21:46.762Z,24.40
2023-02-15T10:24:42.037Z,23.20
2023-02-15T10:27:20.030Z,24.70
2023-02-15T10:30:03.177Z,25.73
2023-02-15T10:32:35.947Z,23.67
2023-02-15T10:35:34.365Z,26.73
2023-02-15T10:38:05.938Z,24.10
2023-02-15T10:41:00.852Z,26.07
2023-02-15T10:43:40.318Z,26.03
2023-02-15T10:46:34.889Z,24.63
2023-02-15T10:49:28.442Z,25.40
2023-02-15T10:52:17.186Z,25.63
2023-02-15T10:55:07.959Z,23.73
2023-02-15T10:58:01.145Z,26.70
2023-02-15T11:00:34.422Z,26.60
2023-02-15T11:03:28.884Z,25.70
2023-02-15T11:06:13.227Z,25.07
2023-02-15T11:08:44.781Z,25.63
2023-02-15T11:11:20.271Z,24.87
2023-02-15T11:13:51.928Z,23.80
2023-02-15T11:16:36.774Z,23.17
2023-02-15T11:19:17.550Z,25.30
2023-02-15T11:21:50.853Z,27.23
2023-02-15T11:24:23.670Z,24.07
2023-02-15T11:26:57.726Z,23.73
2023-02-15T11:29:48.248Z,23.80
2023-02-15T11:32:29.325Z,24.33
2023-02-15T11:35:11.939Z,21.27
2023-02-15T11:37:47.524Z,21.87
2023-02-15T11:40:52.841Z,23.07
2023-02-15T11:43:38.983Z,21.43
2023-02-15T11:46:12.020Z,21.57
2023-02-15T11:48:40.632Z,21.67
2023-02-15T11:51:23.854Z,21.80
2023-02-15T11:53:55.966Z,22.87
2023-02-15T11:56:25.626Z,24.10
2023-02-15T11:59:01.579Z,21.80
2023-02-15T12:01:48.725Z,21.50
2023-02-15T12:04:19.463Z,22.73
2023-02-15T12:06:53.741Z,22.30
2023-02-15T12:09:39.686Z,20.77
2023-02-15T12:12:25.952Z,20.43
2023-02-15T12:14:59.123Z,21.23
2023-02-15T12:17:52.949Z,22.43
2023-02-15T12:20:20.599Z,20.07
2023-02-15T12:23:08.151Z,24.03
2023-02-15T12:25:35.989Z,21.13
2023-02-15T12:28:05.236Z,21.30
2023-02-15T12:30:36.919Z,19.73
2023-02-15T12:33:22.775Z,21.67
2023-02-15T12:36:01.873Z,21.07
2023-02-15T12:38:30.539Z,21.33
2023-02-15T12:41:04.582Z,21.23
2023-02-15T12:43:35.748Z,19.60
2023-02-15T12:46:24.960Z,21.07
2023-02-15T12:49:21.442Z,22.33
2023-02-15T12:51:54.756Z,21.53
2023-02-15T12:54:30.675Z,22.20
2023-02-15T12:56:59.563Z,21.00
2023-02-15T12:59:27.214Z,20.97
2023-02-15T13:01:55.658Z,20.30
2023-02-15T13:04:23.309Z,25.93
2023-02-15T13:06:53.728Z,23.67
2023-02-15T13:09:39.087Z,20.93
2023-02-15T13:12:21.106Z,21.13
2023-02-15T13:14:55.733Z,21.67
2023-02-15T13:17:32.093Z,21.63
2023-02-15T13:20:08.202Z,21.50
2023-02-15T13:22:43.992Z,22.03
2023-02-15T13:25:28.032Z,23.27
2023-02-15T13:28:02.131Z,20.63
2023-02-15T13:30:36.472Z,20.27
2023-02-15T13:33:09.590Z,25.17
2023-02-15T13:35:55.860Z,21.93
2023-02-15T13:38:35.739Z,26.10
2023-02-15T13:41:10.289Z,23.87
2023-02-15T13:43:57.960Z,24.90
2023-02-15T13:46:52.501Z,23.60
2023-02-15T13:49:52.920Z,25.47
2023-02-15T13:52:29.240Z,25.00
2023-02-15T13:55:26.730Z,25.60
2023-02-15T13:58:25.424Z,26.20
2023-02-15T14:01:11.551Z,25.20
2023-02-15T14:03:59.349Z,32.57
2023-02-15T14:06:52.513Z,27.03
2023-02-15T14:09:28.699Z,23.73
2023-02-15T14:12:11.297Z,25.93
2023-02-15T14:15:02.806Z,24.43
2023-02-15T14:18:00.097Z,26.37
2023-02-15T14:20:47.465Z,25.77
2023-02-15T14:23:37.157Z,23.80
2023-02-15T14:26:24.180Z,26.57
2023-02-15T14:29:13.899Z,27.10
2023-02-15T14:31:44.814Z,28.93
2023-02-15T14:34:55.901Z,31.13
2023-02-15T14:37:34.886Z,28.83
2023-02-15T14:40:28.245Z,25.57
2023-02-15T14:43:09.749Z,26.97
2023-02-15T14:45:57.207Z,28.13
2023-02-15T14:48:49.011Z,25.63
2023-02-15T14:51:43.981Z,24.60
2023-02-15T14:54:18.350Z,32.47
2023-02-15T14:56:47.313Z,26.77
2023-02-15T14:59:21.731Z,28.97
2023-02-15T15:01:53.639Z,27.43
2023-02-15T15:04:30.535Z,31.80
2023-02-15T15:07:04.540Z,31.43
2023-02-15T15:09:36.227Z,28.13
2023-02-15T15:12:27.008Z,29.37
2023-02-15T15:14:55.316Z,29.17
2023-02-15T15:17:53.395Z,28.17
2023-02-15T15:20:27.110Z,28.40
2023-02-15T15:23:16.568Z,29.37
2023-02-15T15:25:59.436Z,26.77
2023-02-15T15:28:52.183Z,29.73
2023-02-15T15:31:46.821Z,30.07
2023-02-15T15:34:17.221Z,29.57
2023-02-15T15:37:10.281Z,26.97
2023-02-15T15:39:50.606Z,30.63
2023-02-15T15:42:37.517Z,28.87
2023-02-15T15:45:12.071Z,32.07
2023-02-15T15:47:58.745Z,27.27
2023-02-15T15:50:39.732Z,29.70
2023-02-15T15:53:16.538Z,31.63
2023-02-15T15:55:47.465Z,29.07
2023-02-15T15:58:19.105Z,30.20
2023-02-15T16:01:01.456Z,31.03
2023-02-15T16:03:30.544Z,30.87
2023-02-15T16:06:16.435Z,31.07
2023-02-15T16:08:44.609Z,33.47
2023-02-15T16:11:30.708Z,32.50
2023-02-15T16:13:58.629Z,30.40
2023-02-15T16:16:29.693Z,32.77
2023-02-15T16:21:45.224Z,32.73
2023-02-15T16:24:41.099Z,33.37
2023-02-15T16:27:22.504Z,35.10
2023-02-15T16:29:50.281Z,31.63
2023-02-15T16:32:20.486Z,36.13
2023-02-15T16:35:02.947Z,37.17
2023-02-15T16:37:48.771Z,37.50
2023-02-15T16:40:25.590Z,35.97
2023-02-15T16:43:04.485Z,32.20
2023-02-15T16:45:33.475Z,36.83
2023-02-15T16:48:06.593Z,35.90
2023-02-15T16:50:53.191Z,35.90
2023-02-15T16:53:28.215Z,35.37
2023-02-15T16:56:04.972Z,35.67
2023-02-15T16:58:45.109Z,36.67
2023-02-15T17:01:16.565Z,35.50
2023-02-15T17:03:44.287Z,35.97
2023-02-15T17:06:30.310Z,39.63
2023-02-15T17:09:07.012Z,35.10
2023-02-15T17:11:41.989Z,39.63
2023-02-15T17:14:12.357Z,39.23
2023-02-15T17:16:52.363Z,36.07
2023-02-15T17:19:19.905Z,38.30
2023-02-15T17:21:52.079Z,38.97
2023-02-15T17:24:32.561Z,39.23
2023-02-15T17:27:05.720Z,39.90
2023-02-15T17:29:41.453Z,39.67
2023-02-15T17:32:44.448Z,38.17
2023-02-15T17:35:25.776Z,41.57
2023-02-15T17:38:07.273Z,40.63
2023-02-15T17:40:36.837Z,38.33
2023-02-15T17:43:04.488Z,40.87
2023-02-15T17:45:41.259Z,41.50
2023-02-15T17:48:17.949Z,45.13
2023-02-15T17:50:45.578Z,44.17
2023-02-15T17:53:16.554Z,42.90
2023-02-15T17:55:44.993Z,43.97
2023-02-15T17:58:16.331Z,40.67
2023-02-15T18:01:05.332Z,38.23
2023-02-15T18:04:07.882Z,42.60
2023-02-15T18:06:57.644Z,39.80
2023-02-15T18:09:46.022Z,39.20
2023-02-15T18:12:33.040Z,43.90
2023-02-15T18:15:01.751Z,45.37
2023-02-15T18:17:34.282Z,43.60
2023-02-15T18:20:32.533Z,42.17
2023-02-15T18:23:01.966Z,43.37
2023-02-15T18:25:29.656Z,44.90
2023-02-15T18:27:57.383Z,41.97
2023-02-15T18:30:28.177Z,42.13
2023-02-15T18:32:58.097Z,42.90
2023-02-15T18:35:30.807Z,41.23
2023-02-15T18:38:00.712Z,42.67
2023-02-15T18:40:29.440Z,45.23
2023-02-15T18:42:57.459Z,47.40
2023-02-15T18:45:28.616Z,44.33
2023-02-15T18:47:56.445Z,47.03
2023-02-15T18:50:27.134Z,43.63
2023-02-15T18:52:54.896Z,47.00
2023-02-15T18:55:25.471Z,44.13
2023-02-15T18:57:55.194Z,46.90
2023-02-15T19:00:32.767Z,44.27
2023-02-15T19:03:04.340Z,52.23
2023-02-15T19:05:33.645Z,50.40
2023-02-15T19:08:02.418Z,48.73
2023-02-15T19:10:32.983Z,47.53
2023-02-15T19:13:00.743Z,51.47
2023-02-15T19:15:30.549Z,53.33
2023-02-15T19:18:01.431Z,49.07
2023-02-15T19:20:37.300Z,50.63
2023-02-15T19:23:14.504Z,52.23
2023-02-15T19:25:45.233Z,56.47
2023-02-15T19:28:32.777Z,58.03
2023-02-15T19:31:00.645Z,63.53
2023-02-15T19:33:28.346Z,61.17
2023-02-15T19:35:57.495Z,61.97
2023-02-15T19:38:29.034Z,57.60
2023-02-15T19:41:02.486Z,58.00
2023-02-15T19:43:35.232Z,63.10
2023-02-15T19:46:03.393Z,58.87
2023-02-15T19:48:31.242Z,61.40
2023-02-15T19:50:58.900Z,62.60
2023-02-15T19:53:28.683Z,60.00
2023-02-15T19:55:56.287Z,65.93
2023-02-15T19:58:27.094Z,61.87
2023-02-15T20:00:54.673Z,68.90
2023-02-15T20:03:22.478Z,68.63
2023-02-15T20:05:51.657Z,70.53
2023-02-15T20:08:24.675Z,71.27
2023-02-15T20:10:52.555Z,58.70
2023-02-15T20:13:24.400Z,56.10
2023-02-15T20:15:52.304Z,62.57
2023-02-15T20:18:22.441Z,71.00
2023-02-15T20:20:52.585Z,61.13
2023-02-15T20:23:33.540Z,61.40
2023-02-15T20:26:11.604Z,66.00
2023-02-15T20:28:39.175Z,62.00
2023-02-15T20:31:09.359Z,65.77
2023-02-15T20:33:39.623Z,60.47
2023-02-15T20:36:11.406Z,69.77
2023-02-15T20:38:39.060Z,71.07
2023-02-15T20:41:35.434Z,59.10
2023-02-15T20:44:22.110Z,58.90
2023-02-15T20:46:52.830Z,59.23
2023-02-15T20:49:25.219Z,60.57
2023-02-15T20:51:57.836Z,54.77
2023-02-15T20:54:34.716Z,60.10
2023-02-15T20:57:02.384Z,62.10
2023-02-15T20:59:32.516Z,67.00
2023-02-15T21:02:12.685Z,59.17
2023-02-15T21:04:42.828Z,57.80
2023-02-15T21:07:19.620Z,61.50
2023-02-15T21:09:48.145Z,58.83
2023-02-15T21:12:19.865Z,63.43
2023-02-15T21:14:50.090Z,59.67
2023-02-15T21:17:19.408Z,65.00
2023-02-15T21:19:47.074Z,66.30
2023-02-15T21:22:16.253Z,62.10
2023-02-15T21:24:51.768Z,63.53
2023-02-15T21:27:19.421Z,66.67
2023-02-15T21:29:47.069Z,67.43
2023-02-15T21:32:14.922Z,67.67
2023-02-15T21:34:42.833Z,67.97
2023-02-15T21:37:30.294Z,63.20
2023-02-15T21:39:58.150Z,63.67
2023-02-15T21:42:47.325Z,62.17
2023-02-15T21:45:36.156Z,66.77
2023-02-15T21:48:03.931Z,67.03
2023-02-15T21:50:50.390Z,60.23
2023-02-15T21:53:31.780Z,59.80
2023-02-15T21:56:03.277Z,62.13
2023-02-15T21:58:36.421Z,59.93
2023-02-15T22:01:04.523Z,61.63
2023-02-15T22:03:37.638Z,61.57
2023-02-15T22:06:05.709Z,57.97
2023-02-15T22:08:33.984Z,54.30
2023-02-15T22:11:02.096Z,55.47
2023-02-15T22:13:33.886Z,56.57
2023-02-15T22:16:02.954Z,54.13
2023-02-15T22:18:34.436Z,60.00
2023-02-15T22:21:04.465Z,57.37
2023-02-15T22:23:32.337Z,56.53
2023-02-15T22:26:05.387Z,60.17
2023-02-15T22:28:35.573Z,59.57
2023-02-15T22:31:04.680Z,53.30
2023-02-15T22:33:34.369Z,55.87
2023-02-15T22:36:02.091Z,55.77
2023-02-15T22:38:29.945Z,54.53
2023-02-15T22:41:04.951Z,60.17
2023-02-15T22:43:38.034Z,48.17
2023-02-15T22:46:08.343Z,50.33
2023-02-15T22:48:36.091Z,56.10
2023-02-15T22:51:04.146Z,52.47
2023-02-15T22:53:31.935Z,59.10
2023-02-15T22:56:04.528Z,52.27
2023-02-15T22:58:32.378Z,57.97
2023-02-15T23:01:01.916Z,49.70
2023-02-15T23:03:31.440Z,51.67
2023-02-15T23:05:59.328Z,50.73
2023-02-15T23:08:27.026Z,48.47
2023-02-15T23:10:56.727Z,50.43
2023-02-15T23:13:30.109Z,50.60
2023-02-15T23:16:00.719Z,52.03
2023-02-15T23:18:31.294Z,51.00
2023-02-15T23:21:20.537Z,53.17
2023-02-15T23:23:54.233Z,51.60
2023-02-15T23:26:27.696Z,51.87
2023-02-15T23:28:57.910Z,57.17
2023-02-15T23:31:30.416Z,57.07
2023-02-15T23:33:59.528Z,59.57
2023-02-15T23:36:38.632Z,58.97
2023-02-15T23:39:36.608Z,56.43
2023-02-15T23:42:11.455Z,51.50
2023-02-15T23:44:40.750Z,53.47
2023-02-15T23:47:44.823Z,59.80
2023-02-15T23:50:32.904Z,53.47
2023-02-15T23:53:01.290Z,53.43
2023-02-15T23:55:36.373Z,55.40
2023-02-15T23:58:13.426Z,57.13
